createdAt,value
2018-01-02T00:00:17.669Z,3.80
2018-01-02T00:02:45.679Z,3.80
2018-01-02T00:05:13.618Z,3.80
2018-01-02T00:07:41.583Z,3.80
2018-01-02T00:10:09.666Z,3.80
2018-01-02T00:12:39.151Z,3.80
2018-01-02T00:15:08.348Z,3.90
2018-01-02T00:17:37.467Z,3.90
2018-01-02T00:20:05.696Z,3.80
2018-01-02T00:22:34.737Z,3.80
2018-01-02T00:25:03.704Z,3.70
2018-01-02T00:27:32.258Z,3.70
2018-01-02T00:30:01.449Z,3.70
2018-01-02T00:32:31.229Z,3.70
2018-01-02T00:34:59.915Z,3.60
2018-01-02T00:37:28.826Z,3.60
2018-01-02T00:39:57.972Z,3.60
2018-01-02T00:42:27.131Z,3.60
2018-01-02T00:44:55.972Z,3.60
2018-01-02T00:47:24.753Z,3.60
2018-01-02T00:49:53.322Z,3.60
2018-01-02T00:52:22.699Z,3.60
2018-01-02T00:54:51.541Z,3.60
2018-01-02T00:57:19.968Z,3.60
2018-01-02T00:59:50.184Z,3.60
2018-01-02T01:02:18.850Z,3.60
2018-01-02T01:04:47.341Z,3.70
2018-01-02T01:07:15.878Z,3.60
2018-01-02T01:09:45.295Z,3.70
2018-01-02T01:12:14.563Z,3.70
2018-01-02T01:14:44.824Z,3.70
2018-01-02T01:17:14.024Z,3.70
2018-01-02T01:19:41.972Z,3.70
2018-01-02T01:22:09.902Z,3.70
2018-01-02T01:24:38.616Z,3.80
2018-01-02T01:27:06.530Z,3.80
2018-01-02T01:29:34.491Z,3.80
2018-01-02T01:32:02.400Z,3.90
2018-01-02T01:34:30.414Z,3.90
2018-01-02T01:36:58.357Z,4.00
2018-01-02T01:39:26.414Z,4.00
2018-01-02T01:41:54.344Z,4.00
2018-01-02T01:44:22.300Z,4.00
2018-01-02T01:46:50.428Z,4.00
2018-01-02T01:49:18.408Z,4.10
2018-01-02T01:51:46.323Z,4.20
2018-01-02T01:54:15.071Z,4.10
2018-01-02T01:56:43.001Z,4.10
2018-01-02T01:59:11.004Z,4.20
2018-01-02T02:01:38.960Z,4.20
2018-01-02T02:04:06.998Z,4.20
2018-01-02T02:06:34.897Z,4.20
2018-01-02T02:09:02.924Z,4.30
2018-01-02T02:11:30.824Z,4.20
2018-01-02T02:13:58.805Z,4.20
2018-01-02T02:16:30.397Z,4.20
2018-01-02T02:18:58.376Z,4.30
2018-01-02T02:21:26.285Z,4.30
2018-01-02T02:23:54.240Z,4.30
2018-01-02T02:26:22.906Z,4.30
2018-01-02T02:28:50.884Z,4.30
2018-01-02T02:31:18.785Z,4.30
2018-01-02T02:33:46.784Z,4.30
2018-01-02T02:36:14.950Z,4.30
2018-01-02T02:38:42.919Z,4.30
2018-01-02T02:41:10.843Z,4.30
2018-01-02T02:43:38.791Z,4.20
2018-01-02T02:46:06.917Z,4.30
2018-01-02T02:48:34.860Z,4.20
2018-01-02T02:51:03.519Z,4.30
2018-01-02T02:53:31.463Z,4.30
2018-01-02T02:55:59.352Z,4.30
2018-01-02T02:58:27.297Z,4.30
2018-01-02T03:00:55.750Z,4.30
2018-01-02T03:03:24.453Z,4.30
2018-01-02T03:05:52.344Z,4.30
2018-01-02T03:08:20.245Z,4.30
2018-01-02T03:10:48.214Z,4.40
2018-01-02T03:13:16.170Z,4.40
2018-01-02T03:15:44.071Z,4.40
2018-01-02T03:18:12.027Z,4.40
2018-01-02T03:20:39.975Z,4.40
2018-01-02T03:23:07.890Z,4.40
2018-01-02T03:25:35.856Z,4.40
2018-01-02T03:28:03.772Z,4.40
2018-01-02T03:30:31.727Z,4.40
2018-01-02T03:32:59.613Z,4.40
2018-01-02T03:35:27.560Z,4.40
2018-01-02T03:37:56.698Z,4.30
2018-01-02T03:40:24.631Z,4.40
2018-01-02T03:42:52.509Z,4.40
2018-01-02T03:45:20.457Z,4.40
2018-01-02T03:47:48.372Z,4.40
2018-01-02T03:50:16.310Z,4.40
2018-01-02T03:52:44.281Z,4.40
2018-01-02T03:55:12.222Z,4.40
2018-01-02T03:57:40.116Z,4.40
2018-01-02T04:00:08.061Z,4.30
2018-01-02T04:02:35.955Z,4.30
2018-01-02T04:05:03.918Z,4.30
2018-01-02T04:07:35.434Z,4.30
2018-01-02T04:10:04.187Z,4.30
2018-01-02T04:12:32.084Z,4.30
2018-01-02T04:15:00.007Z,4.30
2018-01-02T04:17:27.908Z,4.30
2018-01-02T04:19:55.853Z,4.30
2018-01-02T04:22:23.752Z,4.30
2018-01-02T04:24:51.706Z,4.30
2018-01-02T04:27:19.607Z,4.40
2018-01-02T04:29:47.544Z,4.30
2018-01-02T04:32:15.549Z,4.30
2018-01-02T04:34:44.258Z,4.30
2018-01-02T04:37:12.314Z,4.30
2018-01-02T04:39:41.029Z,4.30
2018-01-02T04:42:08.926Z,4.30
2018-01-02T04:44:36.870Z,4.30
2018-01-02T04:47:04.741Z,4.30
2018-01-02T04:49:32.682Z,4.30
2018-01-02T04:52:01.339Z,4.40
2018-01-02T04:54:29.281Z,4.40
2018-01-02T04:56:57.171Z,4.40
2018-01-02T04:59:25.133Z,4.40
2018-01-02T05:01:53.064Z,4.40
2018-01-02T05:04:21.016Z,4.50
2018-01-02T05:06:50.092Z,4.50
2018-01-02T05:09:18.043Z,4.50
2018-01-02T05:11:45.954Z,4.50
2018-01-02T05:14:13.960Z,4.50
2018-01-02T05:16:41.889Z,4.40
2018-01-02T05:19:10.605Z,4.50
2018-01-02T05:21:38.502Z,4.50
2018-01-02T05:24:06.466Z,4.50
2018-01-02T05:26:34.895Z,4.50
2018-01-02T05:29:03.061Z,4.60
2018-01-02T05:31:30.937Z,4.60
2018-01-02T05:33:58.885Z,4.50
2018-01-02T05:36:27.080Z,4.60
2018-01-02T05:38:55.034Z,4.60
2018-01-02T05:41:22.944Z,4.60
2018-01-02T05:43:50.885Z,4.60
2018-01-02T05:46:19.674Z,4.60
2018-01-02T05:48:47.693Z,4.60
2018-01-02T05:51:15.710Z,4.70
2018-01-02T05:53:43.707Z,4.70
2018-01-02T05:56:11.669Z,4.70
2018-01-02T05:58:39.603Z,4.60
2018-01-02T06:01:07.712Z,4.70
2018-01-02T06:03:35.637Z,4.70
2018-01-02T06:06:04.853Z,4.70
2018-01-02T06:08:32.918Z,4.60
2018-01-02T06:11:00.946Z,4.70
2018-01-02T06:13:28.857Z,4.60
2018-01-02T06:15:56.814Z,4.60
2018-01-02T06:18:30.638Z,4.50
2018-01-02T06:20:58.580Z,4.50
2018-01-02T06:23:26.455Z,4.40
2018-01-02T06:25:54.389Z,4.40
2018-01-02T06:28:22.462Z,4.40
2018-01-02T06:30:50.423Z,4.50
2018-01-02T06:33:18.448Z,4.50
2018-01-02T06:35:46.512Z,4.50
2018-01-02T06:38:15.545Z,4.60
2018-01-02T06:40:43.663Z,4.60
2018-01-02T06:43:11.602Z,4.70
2018-01-02T06:45:39.602Z,4.70
2018-01-02T06:48:10.744Z,4.70
2018-01-02T06:50:38.734Z,4.70
2018-01-02T06:53:07.298Z,4.80
2018-01-02T06:55:35.252Z,4.80
2018-01-02T06:58:03.162Z,4.80
2018-01-02T07:00:31.122Z,4.70
2018-01-02T07:02:59.118Z,4.70
2018-01-02T07:05:27.092Z,4.70
2018-01-02T07:07:55.077Z,4.70
2018-01-02T07:10:23.365Z,4.70
2018-01-02T07:12:51.287Z,4.70
2018-01-02T07:15:19.300Z,4.70
2018-01-02T07:17:48.415Z,4.70
2018-01-02T07:20:16.345Z,4.70
2018-01-02T07:22:44.280Z,4.60
2018-01-02T07:25:12.162Z,4.70
2018-01-02T07:27:40.263Z,4.70
2018-01-02T07:30:08.232Z,4.70
2018-01-02T07:32:36.212Z,4.70
2018-01-02T07:35:04.491Z,4.60
2018-01-02T07:37:32.463Z,4.60
2018-01-02T07:40:00.383Z,4.60
2018-01-02T07:42:28.366Z,4.60
2018-01-02T07:44:56.416Z,4.60
2018-01-02T07:47:24.424Z,4.60
2018-01-02T07:49:52.410Z,4.60
2018-01-02T07:52:20.452Z,4.60
2018-01-02T07:54:48.447Z,4.60
2018-01-02T07:57:16.467Z,4.60
2018-01-02T07:59:44.491Z,4.60
2018-01-02T08:02:12.584Z,4.60
2018-01-02T08:04:40.505Z,4.60
2018-01-02T08:07:08.480Z,4.60
2018-01-02T08:09:36.438Z,4.60
2018-01-02T08:12:04.473Z,4.60
2018-01-02T08:14:32.387Z,4.60
2018-01-02T08:17:08.595Z,4.60
2018-01-02T08:19:37.265Z,4.60
2018-01-02T08:22:05.206Z,4.60
2018-01-02T08:24:33.139Z,4.60
2018-01-02T08:27:01.106Z,4.60
2018-01-02T08:29:28.982Z,4.60
2018-01-02T08:31:56.904Z,4.60
2018-01-02T08:34:24.784Z,4.70
2018-01-02T08:36:52.810Z,4.60
2018-01-02T08:39:20.745Z,4.70
2018-01-02T08:41:48.774Z,4.60
2018-01-02T08:44:16.715Z,4.60
2018-01-02T08:46:48.239Z,4.60
2018-01-02T08:49:16.188Z,4.70
2018-01-02T08:51:44.222Z,4.70
2018-01-02T08:54:12.317Z,4.70
2018-01-02T08:56:40.240Z,4.70
2018-01-02T08:59:08.198Z,4.70
2018-01-02T09:01:36.242Z,4.70
2018-01-02T09:04:05.121Z,4.70
2018-01-02T09:06:33.040Z,4.70
2018-01-02T09:09:01.003Z,4.70
2018-01-02T09:11:28.904Z,4.80
2018-01-02T09:14:02.566Z,4.80
2018-01-02T09:16:30.517Z,4.80
2018-01-02T09:18:58.487Z,4.80
2018-01-02T09:21:26.423Z,4.80
2018-01-02T09:23:57.420Z,4.80
2018-01-02T09:26:25.450Z,4.80
2018-01-02T09:28:53.417Z,4.80
2018-01-02T09:31:21.526Z,4.70
2018-01-02T09:33:49.704Z,4.70
2018-01-02T09:36:17.773Z,4.80
2018-01-02T09:38:45.904Z,4.80
2018-01-02T09:41:14.013Z,4.80
2018-01-02T09:43:41.924Z,4.80
2018-01-02T09:46:10.077Z,4.90
2018-01-02T09:48:38.197Z,4.80
2018-01-02T09:51:06.321Z,4.90
2018-01-02T09:53:34.409Z,4.90
2018-01-02T09:56:03.569Z,4.90
2018-01-02T09:58:31.521Z,4.80
2018-01-02T10:00:59.587Z,4.90
2018-01-02T10:03:27.518Z,4.90
2018-01-02T10:05:55.674Z,5.00
2018-01-02T10:08:23.639Z,5.00
2018-01-02T10:10:51.605Z,5.10
2018-01-02T10:13:20.337Z,5.20
2018-01-02T10:15:48.317Z,5.20
2018-01-02T10:18:16.272Z,5.30
2018-01-02T10:20:46.962Z,5.40
2018-01-02T10:23:15.689Z,5.40
2018-01-02T10:25:43.666Z,5.40
2018-01-02T10:28:11.578Z,5.40
2018-01-02T10:30:39.533Z,5.30
2018-01-02T10:33:07.542Z,5.30
2018-01-02T10:35:36.369Z,5.40
2018-01-02T10:38:04.598Z,5.40
2018-01-02T10:40:32.614Z,5.40
2018-01-02T10:43:00.567Z,5.50
2018-01-02T10:45:28.658Z,5.60
2018-01-02T10:47:56.660Z,5.70
2018-01-02T10:50:24.771Z,5.80
2018-01-02T10:52:53.528Z,5.90
2018-01-02T10:55:21.504Z,6.00
2018-01-02T10:57:49.482Z,6.00
2018-01-02T11:00:17.487Z,6.10
2018-01-02T11:02:45.427Z,6.20
2018-01-02T11:05:14.179Z,6.40
2018-01-02T11:07:42.239Z,6.40
2018-01-02T11:10:10.172Z,6.50
2018-01-02T11:12:43.030Z,6.40
2018-01-02T11:15:10.928Z,6.30
2018-01-02T11:17:38.860Z,6.30
2018-01-02T11:20:06.784Z,6.40
2018-01-02T11:22:34.777Z,6.40
2018-01-02T11:25:02.896Z,6.30
2018-01-02T11:27:50.056Z,6.20
2018-01-02T11:30:17.984Z,6.10
2018-01-02T11:32:46.054Z,6.10
2018-01-02T11:35:14.822Z,6.00
2018-01-02T11:37:42.947Z,6.00
2018-01-02T11:40:11.078Z,6.00
2018-01-02T11:42:39.925Z,6.00
2018-01-02T11:45:07.822Z,6.00
2018-01-02T11:47:39.179Z,6.00
2018-01-02T11:50:07.127Z,6.10
2018-01-02T11:52:35.244Z,6.20
2018-01-02T11:55:03.231Z,6.30
2018-01-02T11:57:31.330Z,6.30
2018-01-02T11:59:59.344Z,6.30
2018-01-02T12:02:27.533Z,6.20
2018-01-02T12:04:56.115Z,6.10
2018-01-02T12:07:24.277Z,6.00
2018-01-02T12:09:53.033Z,6.00
2018-01-02T12:12:23.131Z,6.00
2018-01-02T12:14:51.358Z,6.00
2018-01-02T12:17:19.366Z,6.00
2018-01-02T12:19:47.419Z,6.00
2018-01-02T12:22:15.449Z,6.00
2018-01-02T12:24:43.411Z,6.00
2018-01-02T12:27:11.457Z,6.00
2018-01-02T12:29:39.391Z,6.00
2018-01-02T12:32:07.494Z,6.00
2018-01-02T12:34:35.372Z,6.10
2018-01-02T12:37:03.309Z,6.10
2018-01-02T12:39:31.208Z,6.10
2018-01-02T12:41:59.154Z,6.10
2018-01-02T12:44:27.053Z,6.20
2018-01-02T12:46:54.991Z,6.30
2018-01-02T12:49:22.868Z,6.30
2018-01-02T12:51:51.570Z,6.30
2018-01-02T12:54:19.447Z,6.30
2018-01-02T12:56:51.139Z,6.30
2018-01-02T12:59:20.654Z,6.30
2018-01-02T13:01:48.589Z,6.40
2018-01-02T13:04:16.461Z,6.40
2018-01-02T13:06:44.417Z,6.50
2018-01-02T13:09:12.344Z,6.60
2018-01-02T13:11:40.266Z,6.80
2018-01-02T13:14:08.170Z,6.90
2018-01-02T13:16:36.102Z,7.00
2018-01-02T13:19:03.997Z,7.10
2018-01-02T13:21:31.946Z,7.10
2018-01-02T13:23:59.849Z,7.20
2018-01-02T13:26:29.492Z,7.10
2018-01-02T13:28:58.169Z,7.00
2018-01-02T13:31:26.808Z,6.90
2018-01-02T13:33:54.993Z,6.90
2018-01-02T13:36:23.131Z,6.90
2018-01-02T13:38:52.300Z,6.80
2018-01-02T13:41:20.955Z,6.90
2018-01-02T13:43:48.892Z,6.90
2018-01-02T13:46:16.797Z,6.90
2018-01-02T13:48:44.927Z,6.90
2018-01-02T13:51:12.877Z,6.80
2018-01-02T13:53:41.722Z,6.50
2018-01-02T13:56:09.616Z,6.50
2018-01-02T13:58:37.569Z,6.40
2018-01-02T14:01:05.951Z,6.40
2018-01-02T14:03:34.051Z,6.40
2018-01-02T14:06:01.971Z,6.30
2018-01-02T14:08:30.033Z,6.20
2018-01-02T14:10:57.924Z,6.10
2018-01-02T14:13:26.480Z,6.10
2018-01-02T14:15:55.054Z,6.10
2018-01-02T14:18:23.052Z,6.10
2018-01-02T14:20:50.976Z,6.10
2018-01-02T14:23:18.921Z,6.10
2018-01-02T14:25:46.795Z,6.00
2018-01-02T14:28:17.325Z,5.90
2018-01-02T14:30:45.798Z,5.90
2018-01-02T14:33:13.804Z,5.80
2018-01-02T14:35:42.591Z,5.70
2018-01-02T14:38:11.243Z,5.60
2018-01-02T14:40:39.184Z,5.60
2018-01-02T14:43:07.100Z,5.60
2018-01-02T14:45:35.035Z,5.60
2018-01-02T14:48:11.106Z,5.50
2018-01-02T14:50:39.042Z,5.40
2018-01-02T14:53:06.932Z,5.40
2018-01-02T14:55:34.867Z,5.40
2018-01-02T14:58:02.769Z,5.40
2018-01-02T15:00:30.705Z,5.30
2018-01-02T15:02:58.580Z,5.30
2018-01-02T15:05:26.528Z,5.20
2018-01-02T15:07:54.407Z,5.10
2018-01-02T15:10:22.357Z,5.00
2018-01-02T15:12:50.265Z,4.90
2018-01-02T15:15:18.256Z,4.70
2018-01-02T15:17:46.153Z,4.60
2018-01-02T15:20:14.097Z,4.40
2018-01-02T15:22:41.976Z,4.30
2018-01-02T15:25:09.914Z,4.20
2018-01-02T15:27:37.840Z,4.00
2018-01-02T15:30:06.613Z,3.80
2018-01-02T15:32:34.501Z,3.80
2018-01-02T15:35:02.482Z,3.70
2018-01-02T15:37:31.171Z,3.50
2018-01-02T15:39:59.112Z,3.50
2018-01-02T15:42:27.003Z,3.40
2018-01-02T15:44:54.938Z,3.30
2018-01-02T15:47:23.955Z,3.20
2018-01-02T15:49:51.860Z,3.20
2018-01-02T15:52:19.833Z,3.10
2018-01-02T15:54:47.730Z,3.00
2018-01-02T15:57:15.685Z,3.00
2018-01-02T15:59:43.588Z,2.90
2018-01-02T16:02:11.524Z,2.90
2018-01-02T16:04:39.420Z,2.90
2018-01-02T16:07:07.358Z,2.90
2018-01-02T16:09:35.250Z,3.00
2018-01-02T16:12:03.180Z,3.10
2018-01-02T16:14:31.055Z,3.20
2018-01-02T16:16:58.994Z,3.20
2018-01-02T16:19:27.659Z,3.30
2018-01-02T16:21:55.622Z,3.30
2018-01-02T16:24:23.501Z,3.40
2018-01-02T16:26:51.474Z,3.40
2018-01-02T16:29:19.359Z,3.40
2018-01-02T16:31:48.074Z,3.40
2018-01-02T16:34:15.954Z,3.50
2018-01-02T16:36:43.886Z,3.40
2018-01-02T16:39:12.589Z,3.50
2018-01-02T16:41:40.526Z,3.50
2018-01-02T16:44:08.430Z,3.50
2018-01-02T16:46:36.502Z,3.50
2018-01-02T16:49:04.380Z,3.60
2018-01-02T16:51:32.387Z,3.70
2018-01-02T16:54:00.401Z,3.80
2018-01-02T16:56:29.105Z,4.00
2018-01-02T16:58:57.101Z,3.90
2018-01-02T17:01:24.976Z,4.00
2018-01-02T17:03:52.925Z,4.10
2018-01-02T17:06:20.860Z,4.20
2018-01-02T17:08:48.884Z,4.30
2018-01-02T17:11:16.766Z,4.20
2018-01-02T17:13:44.708Z,4.20
2018-01-02T17:16:12.856Z,4.20
2018-01-02T17:18:40.866Z,4.40
2018-01-02T17:21:08.759Z,4.40
2018-01-02T17:23:36.670Z,4.40
2018-01-02T17:26:04.623Z,4.40
2018-01-02T17:28:33.274Z,4.40
2018-01-02T17:31:01.235Z,4.50
2018-01-02T17:33:29.116Z,4.50
2018-01-02T17:36:00.427Z,4.50
2018-01-02T17:38:28.304Z,4.60
2018-01-02T17:40:56.236Z,4.60
2018-01-02T17:43:24.881Z,4.60
2018-01-02T17:45:54.397Z,4.60
2018-01-02T17:48:22.281Z,4.60
2018-01-02T17:50:50.225Z,4.60
2018-01-02T17:53:18.102Z,4.60
2018-01-02T17:55:46.057Z,4.70
2018-01-02T17:58:13.945Z,4.80
2018-01-02T18:00:41.838Z,4.80
2018-01-02T18:03:09.781Z,4.80
2018-01-02T18:05:37.665Z,4.80
2018-01-02T18:08:05.595Z,4.90
2018-01-02T18:10:33.544Z,5.00
2018-01-02T18:13:01.468Z,5.10
2018-01-02T18:15:29.370Z,5.10
2018-01-02T18:17:57.315Z,5.10
2018-01-02T18:20:25.955Z,5.10
2018-01-02T18:22:53.887Z,5.00
2018-01-02T18:25:21.774Z,5.10
2018-01-02T18:27:51.809Z,5.10
2018-01-02T18:30:19.723Z,5.20
2018-01-02T18:32:47.669Z,5.20
2018-01-02T18:35:16.842Z,5.20
2018-01-02T18:37:45.644Z,5.10
2018-01-02T18:40:13.539Z,5.10
2018-01-02T18:42:41.484Z,5.10
2018-01-02T18:45:09.394Z,5.10
2018-01-02T18:47:37.337Z,5.20
2018-01-02T18:50:05.322Z,5.20
2018-01-02T18:52:33.244Z,5.30
2018-01-02T18:55:01.208Z,5.30
2018-01-02T18:57:29.294Z,5.30
2018-01-02T18:59:57.289Z,5.20
2018-01-02T19:02:25.257Z,5.10
2018-01-02T19:04:53.216Z,5.00
2018-01-02T19:07:21.120Z,5.00
2018-01-02T19:09:51.163Z,4.90
2018-01-02T19:12:20.020Z,4.80
2018-01-02T19:14:53.637Z,4.90
2018-01-02T19:17:23.739Z,4.90
2018-01-02T19:19:53.516Z,4.80
2018-01-02T19:22:23.232Z,4.80
2018-01-02T19:24:52.053Z,4.80
2018-01-02T19:27:20.451Z,4.80
2018-01-02T19:29:48.352Z,4.70
2018-01-02T19:32:16.240Z,4.70
2018-01-02T19:34:45.087Z,4.70
2018-01-02T19:37:14.429Z,4.70
2018-01-02T19:39:43.367Z,4.70
2018-01-02T19:42:12.055Z,4.80
2018-01-02T19:44:41.563Z,4.80
2018-01-02T19:47:11.006Z,4.80
2018-01-02T19:49:39.339Z,4.80
2018-01-02T19:52:07.974Z,4.80
2018-01-02T19:54:37.306Z,4.80
2018-01-02T19:57:05.832Z,4.80
2018-01-02T19:59:34.808Z,4.80
2018-01-02T20:02:03.445Z,4.90
2018-01-02T20:04:31.609Z,4.80
2018-01-02T20:07:00.267Z,4.80
2018-01-02T20:09:28.750Z,4.80
2018-01-02T20:11:57.965Z,4.80
2018-01-02T20:14:26.401Z,4.80
2018-01-02T20:16:55.221Z,4.80
2018-01-02T20:19:24.184Z,4.80
2018-01-02T20:21:53.097Z,4.80
2018-01-02T20:24:22.537Z,4.80
2018-01-02T20:26:50.754Z,4.80
2018-01-02T20:29:20.171Z,4.80
2018-01-02T20:31:48.087Z,4.80
2018-01-02T20:34:16.034Z,4.80
2018-01-02T20:36:45.644Z,4.80
2018-01-02T20:39:15.253Z,4.80
2018-01-02T20:41:43.601Z,4.80
2018-01-02T20:44:12.458Z,4.80
2018-01-02T20:46:40.947Z,4.80
2018-01-02T20:49:09.627Z,4.70
2018-01-02T20:51:38.133Z,4.70
2018-01-02T20:54:06.489Z,4.70
2018-01-02T20:56:35.644Z,4.70
2018-01-02T20:59:04.134Z,4.70
2018-01-02T21:01:34.238Z,4.70
2018-01-02T21:04:03.840Z,4.80
2018-01-02T21:06:33.405Z,4.80
2018-01-02T21:09:01.903Z,4.80
2018-01-02T21:11:30.214Z,4.80
2018-01-02T21:13:59.214Z,4.90
2018-01-02T21:16:27.839Z,4.90
2018-01-02T21:18:56.981Z,4.90
2018-01-02T21:21:25.497Z,4.90
2018-01-02T21:23:54.920Z,4.90
2018-01-02T21:26:23.268Z,5.00
2018-01-02T21:28:52.225Z,5.00
2018-01-02T21:31:20.875Z,5.00
2018-01-02T21:33:48.950Z,5.00
2018-01-02T21:36:16.853Z,5.00
2018-01-02T21:38:44.880Z,5.00
2018-01-02T21:41:12.939Z,5.10
2018-01-02T21:43:40.917Z,5.10
2018-01-02T21:46:08.802Z,5.10
2018-01-02T21:48:36.781Z,5.10
2018-01-02T21:51:04.669Z,5.10
2018-01-02T21:53:32.621Z,5.10
2018-01-02T21:56:02.591Z,5.10
2018-01-02T21:58:31.290Z,5.10
2018-01-02T22:00:59.983Z,5.10
2018-01-02T22:03:27.933Z,5.10
2018-01-02T22:05:55.894Z,5.10
2018-01-02T22:08:23.829Z,5.10
2018-01-02T22:10:51.713Z,5.20
2018-01-02T22:13:19.673Z,5.20
2018-01-02T22:15:47.577Z,5.20
2018-01-02T22:18:16.284Z,5.20
2018-01-02T22:20:44.182Z,5.20
2018-01-02T22:23:12.131Z,5.20
2018-01-02T22:25:40.019Z,5.20
2018-01-02T22:28:07.979Z,5.20
2018-01-02T22:30:35.859Z,5.20
2018-01-02T22:33:03.803Z,5.20
2018-01-02T22:35:31.746Z,5.20
2018-01-02T22:37:59.634Z,5.20
2018-01-02T22:40:27.578Z,5.20
2018-01-02T22:42:55.481Z,5.20
2018-01-02T22:45:23.417Z,5.30
2018-01-02T22:47:51.488Z,5.30
2018-01-02T22:50:19.446Z,5.30
2018-01-02T22:52:47.318Z,5.40
2018-01-02T22:55:15.241Z,5.30
2018-01-02T22:57:43.133Z,5.40
2018-01-02T23:00:11.080Z,5.40
2018-01-02T23:02:41.643Z,5.40
2018-01-02T23:05:09.563Z,5.50
2018-01-02T23:07:37.469Z,5.40
2018-01-02T23:10:06.670Z,5.50
2018-01-02T23:12:34.669Z,5.50
2018-01-02T23:15:02.618Z,5.50
2018-01-02T23:17:31.730Z,5.50
2018-01-02T23:19:59.704Z,5.50
2018-01-02T23:22:27.572Z,5.50
2018-01-02T23:24:55.574Z,5.50
2018-01-02T23:27:23.447Z,5.50
2018-01-02T23:29:51.431Z,5.60
2018-01-02T23:32:21.894Z,5.60
2018-01-02T23:34:53.079Z,5.60
2018-01-02T23:37:24.017Z,5.60
2018-01-02T23:39:52.721Z,5.70
2018-01-02T23:42:20.716Z,5.70
2018-01-02T23:44:51.716Z,5.70
2018-01-02T23:47:21.673Z,5.70
2018-01-02T23:49:49.638Z,5.70
2018-01-02T23:52:17.589Z,5.70
2018-01-02T23:54:48.278Z,5.70
2018-01-02T23:57:16.343Z,5.80
2018-01-02T23:59:44.263Z,5.80
